createdAt,value
2023-03-04T00:00:11.212Z,15.40
2023-03-04T00:02:45.020Z,16.30
2023-03-04T00:05:16.290Z,16.50
2023-03-04T00:09:58.817Z,17.30
2023-03-04T00:12:27.720Z,15.90
2023-03-04T00:14:54.458Z,15.00
2023-03-04T00:17:28.468Z,16.80
2023-03-04T00:20:00.447Z,17.40
2023-03-04T00:22:29.016Z,16.40
2023-03-04T00:24:59.653Z,16.40
2023-03-04T00:27:27.201Z,16.10
2023-03-04T00:29:53.938Z,16.50
2023-03-04T00:32:21.265Z,16.90
2023-03-04T00:34:51.413Z,17.00
2023-03-04T00:37:20.026Z,16.00
2023-03-04T00:39:48.998Z,16.40
2023-03-04T00:42:16.844Z,15.40
2023-03-04T00:44:43.723Z,17.20
2023-03-04T00:47:10.681Z,14.70
2023-03-04T00:49:39.256Z,15.70
2023-03-04T00:52:07.375Z,15.40
2023-03-04T00:54:42.460Z,15.90
2023-03-04T00:57:09.472Z,15.40
2023-03-04T00:59:36.416Z,15.10
2023-03-04T01:02:03.353Z,15.80
2023-03-04T01:04:32.975Z,15.60
2023-03-04T01:07:00.785Z,13.70
2023-03-04T01:09:29.122Z,15.50
2023-03-04T01:11:56.459Z,14.90
2023-03-04T01:14:23.645Z,16.20
2023-03-04T01:16:50.871Z,16.30
2023-03-04T01:19:21.162Z,15.00
2023-03-04T01:21:49.358Z,15.70
2023-03-04T01:24:19.944Z,15.20
2023-03-04T01:26:47.630Z,15.40
2023-03-04T01:29:21.027Z,15.30
2023-03-04T01:31:52.220Z,15.40
2023-03-04T01:34:25.981Z,14.50
2023-03-04T01:36:52.977Z,15.10
2023-03-04T01:39:19.725Z,16.10
2023-03-04T01:41:46.986Z,14.90
2023-03-04T01:44:14.363Z,17.10
2023-03-04T01:46:48.238Z,16.20
2023-03-04T01:49:16.537Z,14.50
2023-03-04T01:51:46.292Z,16.20
2023-03-04T01:54:13.833Z,18.00
2023-03-04T01:56:43.065Z,16.70
2023-03-04T01:59:16.723Z,17.20
2023-03-04T02:02:04.615Z,17.50
2023-03-04T02:04:33.700Z,20.80
2023-03-04T02:07:01.689Z,19.80
2023-03-04T02:09:29.677Z,17.50
2023-03-04T02:11:56.400Z,20.00
2023-03-04T02:14:24.842Z,21.40
2023-03-04T02:16:55.855Z,19.90
2023-03-04T02:19:27.515Z,21.00
2023-03-04T02:21:54.446Z,21.50
2023-03-04T02:24:32.525Z,22.80
2023-03-04T02:26:59.753Z,22.20
2023-03-04T02:29:26.594Z,21.50
2023-03-04T02:31:53.487Z,22.20
2023-03-04T02:34:25.516Z,23.90
2023-03-04T02:36:54.397Z,23.90
2023-03-04T02:39:25.251Z,21.00
2023-03-04T02:41:53.036Z,21.00
2023-03-04T02:44:23.939Z,23.00
2023-03-04T02:46:51.471Z,23.80
2023-03-04T02:49:19.104Z,23.10
2023-03-04T02:51:46.868Z,22.70
2023-03-04T02:54:22.016Z,22.80
2023-03-04T02:56:50.863Z,22.30
2023-03-04T02:59:18.189Z,24.30
2023-03-04T03:01:50.052Z,21.90
2023-03-04T03:04:17.917Z,23.00
2023-03-04T03:06:45.185Z,24.00
2023-03-04T03:09:16.594Z,25.40
2023-03-04T03:11:46.774Z,23.30
2023-03-04T03:14:15.256Z,25.60
2023-03-04T03:16:42.844Z,24.10
2023-03-04T03:19:11.700Z,25.40
2023-03-04T03:21:39.084Z,24.50
2023-03-04T03:24:05.983Z,24.80
2023-03-04T03:26:33.894Z,25.60
2023-03-04T03:29:00.586Z,26.00
2023-03-04T03:31:28.824Z,25.90
2023-03-04T03:33:58.801Z,25.50
2023-03-04T03:36:27.367Z,25.30
2023-03-04T03:38:54.533Z,27.40
2023-03-04T03:41:21.318Z,24.50
2023-03-04T03:43:48.596Z,24.50
2023-03-04T03:46:15.349Z,25.30
2023-03-04T03:48:43.118Z,25.90
2023-03-04T03:51:10.780Z,24.10
2023-03-04T03:53:37.820Z,23.90
2023-03-04T03:56:05.385Z,23.50
2023-03-04T03:58:33.343Z,25.00
2023-03-04T04:01:00.377Z,25.50
2023-03-04T04:03:27.120Z,24.40
2023-03-04T04:05:53.871Z,24.40
2023-03-04T04:08:24.810Z,25.10
2023-03-04T04:10:52.617Z,25.40
2023-03-04T04:13:19.461Z,22.90
2023-03-04T04:15:53.438Z,23.00
2023-03-04T04:18:23.352Z,25.50
2023-03-04T04:20:51.483Z,25.00
2023-03-04T04:23:18.434Z,21.90
2023-03-04T04:25:45.224Z,22.80
2023-03-04T04:28:14.401Z,23.80
2023-03-04T04:30:41.463Z,23.80
2023-03-04T04:33:13.293Z,24.40
2023-03-04T04:35:40.819Z,24.50
2023-03-04T04:38:08.497Z,23.20
2023-03-04T04:40:36.700Z,24.70
2023-03-04T04:43:04.283Z,26.50
2023-03-04T04:45:33.880Z,23.90
2023-03-04T04:48:00.910Z,22.80
2023-03-04T04:50:32.954Z,24.90
2023-03-04T04:53:00.451Z,25.90
2023-03-04T04:55:27.834Z,22.50
2023-03-04T04:57:55.256Z,24.30
2023-03-04T05:00:22.656Z,25.20
2023-03-04T05:02:51.009Z,25.00
2023-03-04T05:05:18.154Z,25.80
2023-03-04T05:07:51.811Z,24.30
2023-03-04T05:10:20.762Z,23.80
2023-03-04T05:12:47.771Z,23.70
2023-03-04T05:15:15.068Z,21.40
2023-03-04T05:17:41.791Z,24.40
2023-03-04T05:20:10.479Z,23.80
2023-03-04T05:22:37.293Z,24.20
2023-03-04T05:25:05.030Z,21.80
2023-03-04T05:27:32.481Z,23.20
2023-03-04T05:29:59.565Z,24.30
2023-03-04T05:32:28.246Z,24.30
2023-03-04T05:34:55.203Z,23.50
2023-03-04T05:37:22.568Z,26.30
2023-03-04T05:39:49.902Z,24.60
2023-03-04T05:42:16.827Z,23.00
2023-03-04T05:44:44.310Z,21.30
2023-03-04T05:47:11.357Z,23.60
2023-03-04T05:49:40.551Z,21.40
2023-03-04T05:52:10.535Z,21.00
2023-03-04T05:54:37.422Z,20.20
2023-03-04T05:57:04.209Z,21.60
2023-03-04T05:59:31.092Z,18.20
2023-03-04T06:01:58.475Z,19.80
2023-03-04T06:04:25.294Z,21.90
2023-03-04T06:06:53.498Z,21.70
2023-03-04T06:09:21.355Z,19.40
2023-03-04T06:11:47.949Z,20.60
2023-03-04T06:14:14.844Z,21.60
2023-03-04T06:16:42.880Z,22.20
2023-03-04T06:19:09.827Z,22.10
2023-03-04T06:21:42.074Z,21.50
2023-03-04T06:24:08.894Z,21.00
2023-03-04T06:26:35.951Z,23.00
2023-03-04T06:29:04.266Z,22.10
2023-03-04T06:31:31.692Z,21.80
2023-03-04T06:33:58.572Z,21.10
2023-03-04T06:36:25.257Z,19.50
2023-03-04T06:38:52.043Z,23.00
2023-03-04T06:41:19.928Z,23.60
2023-03-04T06:43:53.716Z,24.30
2023-03-04T06:46:30.067Z,19.80
2023-03-04T06:48:57.592Z,20.50
2023-03-04T06:51:26.556Z,18.40
2023-03-04T06:54:06.460Z,24.60
2023-03-04T06:56:37.590Z,22.60
2023-03-04T06:59:04.678Z,18.50
2023-03-04T07:01:32.856Z,22.20
2023-03-04T07:04:09.865Z,22.20
2023-03-04T07:06:37.694Z,21.40
2023-03-04T07:09:07.999Z,22.40
2023-03-04T07:11:39.730Z,23.30
2023-03-04T07:14:14.888Z,24.40
2023-03-04T07:16:53.214Z,21.50
2023-03-04T07:19:22.441Z,24.50
2023-03-04T07:21:59.308Z,25.90
2023-03-04T07:24:27.146Z,23.00
2023-03-04T07:26:54.613Z,25.20
2023-03-04T07:29:34.674Z,23.20
2023-03-04T07:32:08.637Z,23.90
2023-03-04T07:34:36.566Z,24.90
2023-03-04T07:37:06.494Z,24.50
2023-03-04T07:39:36.118Z,23.70
2023-03-04T07:42:04.085Z,25.80
2023-03-04T07:44:31.199Z,26.20
2023-03-04T07:46:57.980Z,25.80
2023-03-04T07:49:25.095Z,28.10
2023-03-04T07:51:52.136Z,26.90
2023-03-04T07:54:19.738Z,27.50
2023-03-04T07:56:48.603Z,27.10
2023-03-04T07:59:17.121Z,27.50
2023-03-04T08:01:45.652Z,28.50
2023-03-04T08:04:13.853Z,25.60
2023-03-04T08:06:41.284Z,23.50
2023-03-04T08:09:09.655Z,27.10
2023-03-04T08:11:37.539Z,27.10
2023-03-04T08:14:04.892Z,28.00
2023-03-04T08:16:34.804Z,28.90
2023-03-04T08:19:03.019Z,26.90
2023-03-04T08:21:29.750Z,26.70
2023-03-04T08:24:01.800Z,26.90
2023-03-04T08:26:40.362Z,25.00
2023-03-04T08:29:10.211Z,28.50
2023-03-04T08:31:40.227Z,27.90
2023-03-04T08:34:09.979Z,24.80
2023-03-04T08:36:36.880Z,26.10
2023-03-04T08:39:05.328Z,29.00
2023-03-04T08:41:34.116Z,24.50
2023-03-04T08:44:02.543Z,23.40
2023-03-04T08:46:29.759Z,27.40
2023-03-04T08:49:00.234Z,25.80
2023-03-04T08:51:27.869Z,27.00
2023-03-04T08:53:54.930Z,27.00
2023-03-04T08:56:21.739Z,27.40
2023-03-04T08:58:48.731Z,28.00
2023-03-04T09:01:15.542Z,29.10
2023-03-04T09:03:45.580Z,24.20
2023-03-04T09:06:16.265Z,25.70
2023-03-04T09:08:47.970Z,23.50
2023-03-04T09:11:16.965Z,27.80
2023-03-04T09:13:45.651Z,27.30
2023-03-04T09:16:14.247Z,28.10
2023-03-04T09:18:41.215Z,25.50
2023-03-04T09:21:11.615Z,25.40
2023-03-04T09:23:39.882Z,28.40
2023-03-04T09:26:21.377Z,25.40
2023-03-04T09:28:52.503Z,25.80
2023-03-04T09:31:19.410Z,26.30
2023-03-04T09:33:48.768Z,24.70
2023-03-04T09:36:16.807Z,23.80
2023-03-04T09:38:52.302Z,26.80
2023-03-04T09:41:23.502Z,24.20
2023-03-04T09:43:50.496Z,24.30
2023-03-04T09:46:38.073Z,24.60
2023-03-04T09:49:07.308Z,22.90
2023-03-04T09:51:47.902Z,22.90
2023-03-04T09:54:21.860Z,22.60
2023-03-04T09:56:57.131Z,23.90
2023-03-04T10:00:06.565Z,21.40
2023-03-04T10:03:05.665Z,23.00
2023-03-04T10:05:34.430Z,23.40
2023-03-04T10:08:28.849Z,22.60
2023-03-04T10:11:01.964Z,22.30
2023-03-04T10:13:59.019Z,19.20
2023-03-04T10:16:39.968Z,20.00
2023-03-04T10:19:18.436Z,20.00
2023-03-04T10:21:54.987Z,20.10
2023-03-04T10:24:27.173Z,20.20
2023-03-04T10:26:58.143Z,18.80
2023-03-04T10:29:26.422Z,19.30
2023-03-04T10:32:00.595Z,20.40
2023-03-04T10:34:36.265Z,21.60
2023-03-04T10:37:09.265Z,21.40
2023-03-04T10:39:47.538Z,19.20
2023-03-04T10:42:15.022Z,19.50
2023-03-04T10:45:03.792Z,20.20
2023-03-04T10:47:32.269Z,20.70
2023-03-04T10:50:01.800Z,18.90
2023-03-04T10:52:46.836Z,19.10
2023-03-04T10:55:41.693Z,20.60
2023-03-04T10:58:19.457Z,19.40
2023-03-04T11:01:04.966Z,19.90
2023-03-04T11:03:36.475Z,16.90
2023-03-04T11:06:30.438Z,19.30
2023-03-04T11:09:00.477Z,20.00
2023-03-04T11:11:41.840Z,18.60
2023-03-04T11:14:35.138Z,19.80
2023-03-04T11:17:40.146Z,20.60
2023-03-04T11:20:28.686Z,20.20
2023-03-04T11:22:57.810Z,17.40
2023-03-04T11:25:28.229Z,18.70
2023-03-04T11:28:04.305Z,19.20
2023-03-04T11:30:38.196Z,19.80
2023-03-04T11:33:20.609Z,19.20
2023-03-04T11:35:51.189Z,18.60
2023-03-04T11:38:28.958Z,17.00
2023-03-04T11:41:20.477Z,18.00
2023-03-04T11:43:49.083Z,20.00
2023-03-04T11:46:52.579Z,19.20
2023-03-04T11:49:32.420Z,17.20
2023-03-04T11:52:12.420Z,18.80
2023-03-04T11:55:02.732Z,18.50
2023-03-04T11:57:57.863Z,20.00
2023-03-04T12:00:45.427Z,19.10
2023-03-04T12:03:58.086Z,17.90
2023-03-04T12:07:08.125Z,17.50
2023-03-04T12:09:56.819Z,17.90
2023-03-04T12:13:05.284Z,17.50
2023-03-04T12:15:57.846Z,19.50
2023-03-04T12:18:54.720Z,18.90
2023-03-04T12:21:36.793Z,19.10
2023-03-04T12:28:02.796Z,19.30
2023-03-04T12:30:58.810Z,28.30
2023-03-04T12:34:09.272Z,18.70
2023-03-04T12:36:45.298Z,18.90
2023-03-04T12:40:02.988Z,19.10
2023-03-04T12:42:39.462Z,17.70
2023-03-04T12:45:25.574Z,18.50
2023-03-04T12:48:25.398Z,19.10
2023-03-04T13:32:01.065Z,18.10
2023-03-04T13:34:50.901Z,18.90
2023-03-04T13:37:30.978Z,20.00
2023-03-04T13:40:27.519Z,20.00
2023-03-04T13:42:56.564Z,19.70
2023-03-04T13:45:35.835Z,20.10
2023-03-04T13:48:09.480Z,19.30
2023-03-04T13:50:44.547Z,19.60
2023-03-04T13:53:33.775Z,19.60
2023-03-04T13:56:10.456Z,20.00
2023-03-04T13:58:39.165Z,18.10
2023-03-04T14:01:29.114Z,19.10
2023-03-04T14:03:58.910Z,19.30
2023-03-04T14:06:31.547Z,21.60
2023-03-04T14:08:59.775Z,19.60
2023-03-04T14:11:31.615Z,17.40
2023-03-04T14:14:00.588Z,19.60
2023-03-04T14:16:31.056Z,17.20
2023-03-04T14:19:03.681Z,17.10
2023-03-04T14:21:31.950Z,16.10
2023-03-04T14:24:03.732Z,15.60
2023-03-04T14:26:33.109Z,14.20
2023-03-04T14:29:03.141Z,13.30
2023-03-04T14:31:32.063Z,13.80
2023-03-04T14:34:02.416Z,13.50
2023-03-04T14:36:35.532Z,12.80
2023-03-04T14:39:06.033Z,13.00
2023-03-04T14:41:36.812Z,13.30
2023-03-04T14:44:36.165Z,13.00
2023-03-04T14:47:20.182Z,13.30
2023-03-04T14:49:48.694Z,13.40
2023-03-04T14:52:32.960Z,12.40
2023-03-04T14:55:13.958Z,12.40
2023-03-04T14:57:43.685Z,12.40
2023-03-04T15:00:21.868Z,12.50
2023-03-04T15:02:55.651Z,12.10
2023-03-04T15:05:26.681Z,11.80
2023-03-04T15:07:59.915Z,14.00
2023-03-04T15:10:35.604Z,13.10
2023-03-04T15:13:06.305Z,13.40
2023-03-04T15:15:43.295Z,11.80
2023-03-04T15:18:28.097Z,13.30
2023-03-04T15:21:29.993Z,13.30
2023-03-04T15:23:58.335Z,11.80
2023-03-04T15:26:27.153Z,12.10
2023-03-04T15:28:55.306Z,13.50
2023-03-04T15:31:25.879Z,11.80
2023-03-04T15:33:54.939Z,12.30
2023-03-04T15:36:23.520Z,11.90
2023-03-04T15:38:53.451Z,16.40
2023-03-04T15:41:24.020Z,12.60
2023-03-04T15:43:54.766Z,12.10
2023-03-04T15:46:22.882Z,12.40
2023-03-04T15:48:50.860Z,12.20
2023-03-04T15:51:22.587Z,12.80
2023-03-04T15:53:52.455Z,12.30
2023-03-04T15:56:22.966Z,12.60
2023-03-04T15:58:58.206Z,12.80
2023-03-04T16:01:27.553Z,12.20
2023-03-04T16:03:55.789Z,14.20
2023-03-04T16:06:25.624Z,13.40
2023-03-04T16:08:54.576Z,11.80
2023-03-04T16:11:24.962Z,13.70
2023-03-04T16:13:53.282Z,11.80
2023-03-04T16:16:21.301Z,11.90
2023-03-04T16:18:49.788Z,13.00
2023-03-04T16:21:19.249Z,11.60
2023-03-04T16:23:48.390Z,13.50
2023-03-04T16:26:18.503Z,13.10
2023-03-04T16:28:47.260Z,12.30
2023-03-04T16:31:15.571Z,12.60
2023-03-04T16:33:45.080Z,13.60
2023-03-04T16:36:20.277Z,12.50
2023-03-04T16:38:48.895Z,13.40
2023-03-04T16:41:17.885Z,12.40
2023-03-04T16:43:45.813Z,12.60
2023-03-04T16:46:13.939Z,13.50
2023-03-04T16:48:42.333Z,13.00
2023-03-04T16:51:20.826Z,11.20
2023-03-04T16:53:52.104Z,13.00
2023-03-04T16:56:20.901Z,14.40
2023-03-04T16:58:49.336Z,16.00
2023-03-04T17:01:26.190Z,13.50
2023-03-04T17:03:55.227Z,13.70
2023-03-04T17:06:25.782Z,13.30
2023-03-04T17:08:54.073Z,12.40
2023-03-04T17:11:28.033Z,13.40
2023-03-04T17:13:57.974Z,11.90
2023-03-04T17:16:32.886Z,13.00
2023-03-04T17:19:04.988Z,12.10
2023-03-04T17:21:33.892Z,12.50
2023-03-04T17:24:03.624Z,12.20
2023-03-04T17:26:41.200Z,12.50
2023-03-04T17:29:10.069Z,13.30
2023-03-04T17:31:38.806Z,11.50
2023-03-04T17:34:09.364Z,12.60
2023-03-04T17:36:37.746Z,12.70
2023-03-04T17:39:06.301Z,12.60
2023-03-04T17:41:36.316Z,11.50
2023-03-04T17:44:06.120Z,10.50
2023-03-04T17:46:37.150Z,12.50
2023-03-04T17:49:06.100Z,12.30
2023-03-04T17:51:36.628Z,12.20
2023-03-04T17:54:05.834Z,12.70
2023-03-04T17:56:35.787Z,11.40
2023-03-04T17:59:08.399Z,9.80
2023-03-04T18:01:36.523Z,12.60
2023-03-04T18:04:04.909Z,12.00
2023-03-04T18:06:33.265Z,11.80
2023-03-04T18:09:05.974Z,13.40
2023-03-04T18:11:36.934Z,12.30
2023-03-04T18:14:05.152Z,12.00
2023-03-04T18:16:33.561Z,10.00
2023-03-04T18:19:03.553Z,10.40
2023-03-04T18:21:35.967Z,12.70
2023-03-04T18:24:04.625Z,12.90
2023-03-04T18:26:32.916Z,11.70
2023-03-04T18:29:02.493Z,11.80
2023-03-04T18:31:32.475Z,12.70
2023-03-04T18:34:01.818Z,12.00
2023-03-04T18:36:30.553Z,11.10
2023-03-04T18:38:59.655Z,11.30
2023-03-04T18:41:29.353Z,11.00
2023-03-04T18:43:57.514Z,12.40
2023-03-04T18:46:52.492Z,11.40
2023-03-04T18:49:21.156Z,11.90
2023-03-04T18:51:49.389Z,10.60
2023-03-04T18:54:18.512Z,11.10
2023-03-04T18:56:53.216Z,12.10
2023-03-04T18:59:26.572Z,12.00
2023-03-04T19:01:54.607Z,12.10
2023-03-04T19:04:22.685Z,10.80
2023-03-04T19:06:51.148Z,12.20
2023-03-04T19:09:19.917Z,11.20
2023-03-04T19:11:48.100Z,11.70
2023-03-04T19:14:22.296Z,11.60
2023-03-04T19:16:52.036Z,12.10
2023-03-04T19:19:20.409Z,13.40
2023-03-04T19:21:49.202Z,13.70
2023-03-04T19:24:17.454Z,12.90
2023-03-04T19:26:45.538Z,11.80
2023-03-04T19:29:14.027Z,12.60
2023-03-04T19:31:42.620Z,13.20
2023-03-04T19:34:11.189Z,14.10
2023-03-04T19:36:39.172Z,13.30
2023-03-04T19:39:08.824Z,15.30
2023-03-04T19:41:37.229Z,12.00
2023-03-04T19:44:05.297Z,12.90
2023-03-04T19:46:34.783Z,14.00
2023-03-04T19:49:04.748Z,15.40
2023-03-04T19:51:33.274Z,13.80
2023-03-04T19:54:01.906Z,14.90
2023-03-04T19:56:30.029Z,13.60
2023-03-04T19:58:58.000Z,14.10
2023-03-04T20:01:33.791Z,14.30
2023-03-04T20:04:08.197Z,14.50
2023-03-04T20:06:37.401Z,14.90
2023-03-04T20:09:05.955Z,15.40
2023-03-04T20:11:39.214Z,14.00
2023-03-04T20:14:14.841Z,14.70
2023-03-04T20:16:44.193Z,15.10
2023-03-04T20:19:12.877Z,14.00
2023-03-04T20:21:40.856Z,15.90
2023-03-04T20:24:08.889Z,14.90
2023-03-04T20:26:48.125Z,14.20
2023-03-04T20:29:16.716Z,15.40
2023-03-04T20:31:46.235Z,15.20
2023-03-04T20:34:14.640Z,15.70
2023-03-04T20:36:42.885Z,15.30
2023-03-04T20:39:27.402Z,15.10
2023-03-04T20:42:00.728Z,11.50
2023-03-04T20:44:31.783Z,8.90
2023-03-04T20:47:00.804Z,8.40
2023-03-04T20:49:29.257Z,8.20
2023-03-04T20:52:03.048Z,7.30
2023-03-04T20:54:31.528Z,6.10
2023-03-04T20:57:00.029Z,6.00
2023-03-04T20:59:28.197Z,5.30
2023-03-04T21:02:01.529Z,5.10
2023-03-04T21:04:32.530Z,3.90
2023-03-04T21:07:02.313Z,4.30
2023-03-04T21:09:31.650Z,3.80
2023-03-04T21:12:01.095Z,2.70
2023-03-04T21:14:31.802Z,3.00
2023-03-04T21:17:03.180Z,2.10
2023-03-04T21:19:34.300Z,2.40
2023-03-04T21:22:08.502Z,2.10
2023-03-04T21:24:41.246Z,1.80
2023-03-04T21:27:09.755Z,1.40
2023-03-04T21:29:39.424Z,1.20
2023-03-04T21:32:23.432Z,0.90
2023-03-04T21:34:53.274Z,0.90
2023-03-04T21:37:22.446Z,0.80
2023-03-04T21:39:52.029Z,1.00
2023-03-04T21:42:21.265Z,0.80
2023-03-04T21:44:51.440Z,0.90
2023-03-04T21:47:20.778Z,0.70
2023-03-04T21:49:48.900Z,1.20
2023-03-04T21:52:20.701Z,0.90
2023-03-04T21:54:49.132Z,1.00
2023-03-04T21:57:19.730Z,1.70
2023-03-04T21:59:48.499Z,0.90
2023-03-04T22:02:18.333Z,0.70
2023-03-04T22:04:48.063Z,0.70
2023-03-04T22:07:16.567Z,0.60
2023-03-04T22:09:47.453Z,1.10
2023-03-04T22:12:19.482Z,1.20
2023-03-04T22:14:48.159Z,0.90
2023-03-04T22:17:16.393Z,0.90
2023-03-04T22:19:45.056Z,1.30
2023-03-04T22:22:13.224Z,1.00
2023-03-04T22:24:42.464Z,0.80
2023-03-04T22:27:10.435Z,1.10
2023-03-04T22:29:41.366Z,1.00
2023-03-04T22:32:09.593Z,1.20
2023-03-04T22:34:39.109Z,3.00
2023-03-04T22:37:07.413Z,1.40
2023-03-04T22:39:35.445Z,0.90
2023-03-04T22:42:03.607Z,0.90
2023-03-04T22:44:31.671Z,1.10
2023-03-04T22:47:00.437Z,0.90
2023-03-04T22:49:28.686Z,0.60
2023-03-04T22:52:00.628Z,0.90
2023-03-04T22:54:29.753Z,0.90
2023-03-04T22:56:58.043Z,0.70
2023-03-04T22:59:26.058Z,0.90
2023-03-04T23:01:57.481Z,0.80
2023-03-04T23:04:26.518Z,0.90
2023-03-04T23:06:54.693Z,1.10
2023-03-04T23:09:23.546Z,1.10
2023-03-04T23:11:52.065Z,0.90
2023-03-04T23:14:20.720Z,1.10
2023-03-04T23:16:49.308Z,1.00
2023-03-04T23:19:17.896Z,1.50
2023-03-04T23:21:45.949Z,1.00
2023-03-04T23:24:14.078Z,1.00
2023-03-04T23:26:42.794Z,1.10
2023-03-04T23:29:12.353Z,1.30
2023-03-04T23:31:40.958Z,1.10
2023-03-04T23:34:12.797Z,1.10
2023-03-04T23:36:43.101Z,1.50
2023-03-04T23:39:11.358Z,1.50
2023-03-04T23:41:41.561Z,0.90
2023-03-04T23:44:11.039Z,0.80
2023-03-04T23:46:42.890Z,1.70
2023-03-04T23:49:12.733Z,1.20
2023-03-04T23:51:41.201Z,1.00
2023-03-04T23:54:09.681Z,1.00
2023-03-04T23:56:38.033Z,0.90
2023-03-04T23:59:10.080Z,0.90
